sensor_id;sensor_type;location;lat;lon;timestamp;pressure;altitude;pressure_sealevel;temperature;humidity
30819;BME280;17546;42.674;23.284;2023-08-21T00:00:13;95082.34;;;31.42;33.60
30819;BME280;17546;42.674;23.284;2023-08-21T00:02:39;95071.88;;;31.35;33.45
30819;BME280;17546;42.674;23.284;2023-08-21T00:05:05;95074.13;;;31.37;33.47
30819;BME280;17546;42.674;23.284;2023-08-21T00:07:31;95065.06;;;31.28;33.35
30819;BME280;17546;42.674;23.284;2023-08-21T00:09:56;95074.84;;;31.37;33.38
30819;BME280;17546;42.674;23.284;2023-08-21T00:12:22;95063.78;;;31.18;33.91
30819;BME280;17546;42.674;23.284;2023-08-21T00:14:47;95079.72;;;31.35;33.67
30819;BME280;17546;42.674;23.284;2023-08-21T00:17:12;95077.09;;;31.39;33.77
30819;BME280;17546;42.674;23.284;2023-08-21T00:19:38;95069.94;;;31.26;33.73
30819;BME280;17546;42.674;23.284;2023-08-21T00:22:03;95047.13;;;31.14;34.11
30819;BME280;17546;42.674;23.284;2023-08-21T00:24:29;95037.91;;;31.16;34.10
30819;BME280;17546;42.674;23.284;2023-08-21T00:26:54;95066.81;;;31.34;33.98
30819;BME280;17546;42.674;23.284;2023-08-21T00:29:20;95073.50;;;31.38;33.86
30819;BME280;17546;42.674;23.284;2023-08-21T00:31:45;95062.63;;;31.23;34.14
30819;BME280;17546;42.674;23.284;2023-08-21T00:34:11;95068.94;;;31.33;33.94
30819;BME280;17546;42.674;23.284;2023-08-21T00:36:36;95067.03;;;31.38;34.06
30819;BME280;17546;42.674;23.284;2023-08-21T00:39:02;95062.78;;;31.39;33.41
30819;BME280;17546;42.674;23.284;2023-08-21T00:41:27;95077.72;;;31.37;33.47
30819;BME280;17546;42.674;23.284;2023-08-21T00:43:53;95092.03;;;31.37;33.90
30819;BME280;17546;42.674;23.284;2023-08-21T00:46:18;95052.69;;;30.98;33.68
30819;BME280;17546;42.674;23.284;2023-08-21T00:48:44;95049.59;;;30.94;34.18
30819;BME280;17546;42.674;23.284;2023-08-21T00:51:10;95083.47;;;31.12;34.02
30819;BME280;17546;42.674;23.284;2023-08-21T00:53:37;95078.34;;;31.10;34.39
30819;BME280;17546;42.674;23.284;2023-08-21T00:56:03;95085.00;;;31.01;34.31
30819;BME280;17546;42.674;23.284;2023-08-21T00:58:29;95082.97;;;31.03;34.12
30819;BME280;17546;42.674;23.284;2023-08-21T01:00:55;95067.38;;;30.81;34.29
30819;BME280;17546;42.674;23.284;2023-08-21T01:03:20;95069.66;;;30.71;34.33
30819;BME280;17546;42.674;23.284;2023-08-21T01:05:46;95071.16;;;30.72;34.44
30819;BME280;17546;42.674;23.284;2023-08-21T01:08:21;95058.75;;;30.55;34.57
30819;BME280;17546;42.674;23.284;2023-08-21T01:11:01;95054.78;;;30.60;34.97
30819;BME280;17546;42.674;23.284;2023-08-21T01:13:53;95088.50;;;30.76;35.01
30819;BME280;17546;42.674;23.284;2023-08-21T01:16:20;95079.47;;;30.67;34.88
30819;BME280;17546;42.674;23.284;2023-08-21T01:18:47;95060.00;;;30.52;35.09
30819;BME280;17546;42.674;23.284;2023-08-21T01:21:14;95082.84;;;30.64;34.95
30819;BME280;17546;42.674;23.284;2023-08-21T01:23:41;95041.13;;;30.47;34.73
30819;BME280;17546;42.674;23.284;2023-08-21T01:26:09;95053.56;;;30.52;35.13
30819;BME280;17546;42.674;23.284;2023-08-21T01:28:34;95076.38;;;30.63;34.96
30819;BME280;17546;42.674;23.284;2023-08-21T01:31:07;95072.31;;;30.55;34.90
30819;BME280;17546;42.674;23.284;2023-08-21T01:33:37;95090.91;;;30.67;34.92
30819;BME280;17546;42.674;23.284;2023-08-21T01:36:05;95050.34;;;30.45;35.17
30819;BME280;17546;42.674;23.284;2023-08-21T01:38:32;95062.75;;;30.50;35.33
30819;BME280;17546;42.674;23.284;2023-08-21T01:40:58;95083.69;;;30.66;35.18
30819;BME280;17546;42.674;23.284;2023-08-21T01:43:24;95099.22;;;30.75;34.66
30819;BME280;17546;42.674;23.284;2023-08-21T01:45:49;95056.63;;;30.56;34.85
30819;BME280;17546;42.674;23.284;2023-08-21T01:48:15;95093.03;;;30.55;35.42
30819;BME280;17546;42.674;23.284;2023-08-21T01:50:40;95042.41;;;30.32;35.08
30819;BME280;17546;42.674;23.284;2023-08-21T01:53:05;95090.06;;;30.53;35.19
30819;BME280;17546;42.674;23.284;2023-08-21T01:55:31;95060.50;;;30.25;35.69
30819;BME280;17546;42.674;23.284;2023-08-21T01:57:56;95046.41;;;30.03;35.66
30819;BME280;17546;42.674;23.284;2023-08-21T02:00:22;95087.59;;;30.36;35.48
30819;BME280;17546;42.674;23.284;2023-08-21T02:02:47;95059.41;;;30.18;35.51
30819;BME280;17546;42.674;23.284;2023-08-21T02:05:12;95082.16;;;30.28;35.99
30819;BME280;17546;42.674;23.284;2023-08-21T02:07:38;95049.00;;;30.11;36.04
30819;BME280;17546;42.674;23.284;2023-08-21T02:10:03;95068.25;;;29.99;35.99
30819;BME280;17546;42.674;23.284;2023-08-21T02:12:29;95077.56;;;30.11;36.32
30819;BME280;17546;42.674;23.284;2023-08-21T02:14:54;95086.88;;;30.23;36.04
30819;BME280;17546;42.674;23.284;2023-08-21T02:17:20;95059.81;;;30.01;36.07
30819;BME280;17546;42.674;23.284;2023-08-21T02:19:45;95061.03;;;29.98;35.98
30819;BME280;17546;42.674;23.284;2023-08-21T02:22:10;95081.91;;;30.12;36.16
30819;BME280;17546;42.674;23.284;2023-08-21T02:24:36;95066.53;;;30.05;35.96
30819;BME280;17546;42.674;23.284;2023-08-21T02:27:01;95057.31;;;30.07;35.87
30819;BME280;17546;42.674;23.284;2023-08-21T02:29:28;95081.56;;;30.30;36.07
30819;BME280;17546;42.674;23.284;2023-08-21T02:31:53;95085.59;;;30.26;35.75
30819;BME280;17546;42.674;23.284;2023-08-21T02:34:19;95071.22;;;30.24;36.19
30819;BME280;17546;42.674;23.284;2023-08-21T02:36:44;95070.47;;;30.24;35.98
30819;BME280;17546;42.674;23.284;2023-08-21T02:39:09;95077.44;;;30.33;35.75
30819;BME280;17546;42.674;23.284;2023-08-21T02:41:35;95081.69;;;30.32;35.70
30819;BME280;17546;42.674;23.284;2023-08-21T02:44:00;95044.41;;;30.06;36.13
30819;BME280;17546;42.674;23.284;2023-08-21T02:46:25;95066.75;;;30.21;35.85
30819;BME280;17546;42.674;23.284;2023-08-21T02:48:51;95085.16;;;30.30;35.87
30819;BME280;17546;42.674;23.284;2023-08-21T02:51:16;95075.44;;;30.23;35.90
30819;BME280;17546;42.674;23.284;2023-08-21T02:53:42;95037.97;;;30.05;35.79
30819;BME280;17546;42.674;23.284;2023-08-21T02:56:07;95048.75;;;30.07;35.84
30819;BME280;17546;42.674;23.284;2023-08-21T02:58:32;95054.09;;;30.01;36.36
30819;BME280;17546;42.674;23.284;2023-08-21T03:00:58;95078.78;;;30.20;36.11
30819;BME280;17546;42.674;23.284;2023-08-21T03:03:23;95082.91;;;30.17;36.03
30819;BME280;17546;42.674;23.284;2023-08-21T03:05:49;95081.66;;;30.20;36.10
30819;BME280;17546;42.674;23.284;2023-08-21T03:08:14;95053.47;;;29.91;36.36
30819;BME280;17546;42.674;23.284;2023-08-21T03:10:40;95091.47;;;30.17;36.36
30819;BME280;17546;42.674;23.284;2023-08-21T03:13:05;95094.81;;;30.13;36.25
30819;BME280;17546;42.674;23.284;2023-08-21T03:15:30;95105.00;;;30.16;36.31
30819;BME280;17546;42.674;23.284;2023-08-21T03:17:56;95070.22;;;29.96;36.04
30819;BME280;17546;42.674;23.284;2023-08-21T03:20:21;95109.84;;;30.14;36.26
30819;BME280;17546;42.674;23.284;2023-08-21T03:22:47;95109.22;;;30.15;36.20
30819;BME280;17546;42.674;23.284;2023-08-21T03:25:12;95104.00;;;30.12;36.11
30819;BME280;17546;42.674;23.284;2023-08-21T03:27:38;95107.75;;;30.14;36.22
30819;BME280;17546;42.674;23.284;2023-08-21T03:30:06;95103.00;;;30.07;36.38
30819;BME280;17546;42.674;23.284;2023-08-21T03:32:32;95094.19;;;30.03;36.17
30819;BME280;17546;42.674;23.284;2023-08-21T03:34:58;95107.09;;;30.16;36.01
30819;BME280;17546;42.674;23.284;2023-08-21T03:37:23;95090.97;;;29.97;35.94
30819;BME280;17546;42.674;23.284;2023-08-21T03:39:49;95114.19;;;30.03;36.06
30819;BME280;17546;42.674;23.284;2023-08-21T03:42:14;95111.31;;;30.03;36.30
30819;BME280;17546;42.674;23.284;2023-08-21T03:44:40;95068.97;;;29.76;36.36
30819;BME280;17546;42.674;23.284;2023-08-21T03:47:05;95100.53;;;30.01;36.10
30819;BME280;17546;42.674;23.284;2023-08-21T03:49:30;95065.38;;;29.75;36.21
30819;BME280;17546;42.674;23.284;2023-08-21T03:51:56;95100.41;;;29.99;36.19
30819;BME280;17546;42.674;23.284;2023-08-21T03:54:21;95106.97;;;30.02;36.25
30819;BME280;17546;42.674;23.284;2023-08-21T03:56:47;95088.13;;;29.97;35.96
30819;BME280;17546;42.674;23.284;2023-08-21T03:59:12;95095.81;;;30.06;35.72
30819;BME280;17546;42.674;23.284;2023-08-21T04:01:38;95107.50;;;30.10;36.05
30819;BME280;17546;42.674;23.284;2023-08-21T04:04:03;95098.91;;;30.10;36.07
30819;BME280;17546;42.674;23.284;2023-08-21T04:06:29;95103.25;;;30.11;36.28
30819;BME280;17546;42.674;23.284;2023-08-21T04:08:54;95098.78;;;30.08;35.98
30819;BME280;17546;42.674;23.284;2023-08-21T04:11:20;95094.44;;;30.07;36.16
30819;BME280;17546;42.674;23.284;2023-08-21T04:13:45;95090.22;;;29.96;36.19
30819;BME280;17546;42.674;23.284;2023-08-21T04:16:10;95120.00;;;30.05;36.46
30819;BME280;17546;42.674;23.284;2023-08-21T04:18:37;95091.47;;;29.93;36.26
30819;BME280;17546;42.674;23.284;2023-08-21T04:21:03;95113.94;;;30.11;36.28
30819;BME280;17546;42.674;23.284;2023-08-21T04:23:29;95106.75;;;30.10;36.19
30819;BME280;17546;42.674;23.284;2023-08-21T04:26:00;95125.00;;;30.16;36.38
30819;BME280;17546;42.674;23.284;2023-08-21T04:28:26;95120.66;;;30.15;36.06
30819;BME280;17546;42.674;23.284;2023-08-21T04:30:52;95096.56;;;29.95;35.77
30819;BME280;17546;42.674;23.284;2023-08-21T04:33:17;95126.47;;;30.17;36.01
30819;BME280;17546;42.674;23.284;2023-08-21T04:35:42;95108.97;;;30.11;36.06
30819;BME280;17546;42.674;23.284;2023-08-21T04:38:08;95133.06;;;30.20;35.90
30819;BME280;17546;42.674;23.284;2023-08-21T04:40:33;95142.72;;;30.03;35.77
30819;BME280;17546;42.674;23.284;2023-08-21T04:42:59;95126.59;;;29.96;36.20
30819;BME280;17546;42.674;23.284;2023-08-21T04:45:24;95107.09;;;29.80;36.59
30819;BME280;17546;42.674;23.284;2023-08-21T04:47:50;95100.75;;;29.70;36.56
30819;BME280;17546;42.674;23.284;2023-08-21T04:50:15;95110.19;;;29.96;36.41
30819;BME280;17546;42.674;23.284;2023-08-21T04:52:41;95131.31;;;30.03;36.65
30819;BME280;17546;42.674;23.284;2023-08-21T04:55:07;95100.28;;;29.85;36.62
30819;BME280;17546;42.674;23.284;2023-08-21T04:57:32;95143.88;;;30.21;36.45
30819;BME280;17546;42.674;23.284;2023-08-21T04:59:58;95131.84;;;30.23;36.32
30819;BME280;17546;42.674;23.284;2023-08-21T05:02:25;95138.81;;;30.32;36.30
30819;BME280;17546;42.674;23.284;2023-08-21T05:04:50;95143.78;;;30.43;35.79
30819;BME280;17546;42.674;23.284;2023-08-21T05:07:22;95116.53;;;30.18;35.83
30819;BME280;17546;42.674;23.284;2023-08-21T05:09:47;95107.22;;;30.18;35.50
30819;BME280;17546;42.674;23.284;2023-08-21T05:12:12;95133.19;;;30.34;35.41
30819;BME280;17546;42.674;23.284;2023-08-21T05:14:38;95134.72;;;30.35;35.70
30819;BME280;17546;42.674;23.284;2023-08-21T05:17:03;95158.19;;;30.33;35.68
30819;BME280;17546;42.674;23.284;2023-08-21T05:19:30;95163.41;;;30.37;35.50
30819;BME280;17546;42.674;23.284;2023-08-21T05:21:55;95167.13;;;30.27;35.61
30819;BME280;17546;42.674;23.284;2023-08-21T05:24:21;95156.78;;;30.22;35.78
30819;BME280;17546;42.674;23.284;2023-08-21T05:26:46;95139.53;;;29.97;36.03
30819;BME280;17546;42.674;23.284;2023-08-21T05:29:11;95157.28;;;30.19;35.92
30819;BME280;17546;42.674;23.284;2023-08-21T05:31:37;95152.69;;;30.14;36.17
30819;BME280;17546;42.674;23.284;2023-08-21T05:34:04;95123.00;;;30.07;36.02
30819;BME280;17546;42.674;23.284;2023-08-21T05:36:30;95127.59;;;30.12;35.66
30819;BME280;17546;42.674;23.284;2023-08-21T05:38:56;95132.56;;;30.23;35.84
30819;BME280;17546;42.674;23.284;2023-08-21T05:41:22;95151.84;;;30.35;36.19
30819;BME280;17546;42.674;23.284;2023-08-21T05:43:47;95109.47;;;30.19;36.21
30819;BME280;17546;42.674;23.284;2023-08-21T05:46:14;95124.63;;;30.34;36.45
30819;BME280;17546;42.674;23.284;2023-08-21T05:48:39;95148.97;;;30.58;35.69
30819;BME280;17546;42.674;23.284;2023-08-21T05:51:05;95139.06;;;30.47;35.29
30819;BME280;17546;42.674;23.284;2023-08-21T05:53:31;95124.88;;;30.14;35.52
30819;BME280;17546;42.674;23.284;2023-08-21T05:55:56;95137.56;;;30.35;35.50
30819;BME280;17546;42.674;23.284;2023-08-21T05:58:22;95145.00;;;30.40;35.87
30819;BME280;17546;42.674;23.284;2023-08-21T06:00:49;95140.53;;;30.48;35.40
30819;BME280;17546;42.674;23.284;2023-08-21T06:03:14;95146.97;;;30.61;35.03
30819;BME280;17546;42.674;23.284;2023-08-21T06:05:40;95144.63;;;30.57;34.79
30819;BME280;17546;42.674;23.284;2023-08-21T06:08:05;95145.34;;;30.58;34.70
30819;BME280;17546;42.674;23.284;2023-08-21T06:10:34;95134.81;;;30.60;34.71
30819;BME280;17546;42.674;23.284;2023-08-21T06:12:59;95127.09;;;30.51;34.53
30819;BME280;17546;42.674;23.284;2023-08-21T06:15:25;95148.94;;;30.70;34.34
30819;BME280;17546;42.674;23.284;2023-08-21T06:17:50;95155.41;;;30.82;34.01
30819;BME280;17546;42.674;23.284;2023-08-21T06:20:16;95157.63;;;30.84;34.32
30819;BME280;17546;42.674;23.284;2023-08-21T06:22:41;95149.09;;;30.60;34.60
30819;BME280;17546;42.674;23.284;2023-08-21T06:25:08;95157.38;;;30.80;34.21
30819;BME280;17546;42.674;23.284;2023-08-21T06:27:33;95148.28;;;30.95;33.86
30819;BME280;17546;42.674;23.284;2023-08-21T06:29:59;95145.66;;;30.99;33.67
30819;BME280;17546;42.674;23.284;2023-08-21T06:32:24;95123.94;;;30.94;33.49
30819;BME280;17546;42.674;23.284;2023-08-21T06:34:50;95155.53;;;31.22;33.10
30819;BME280;17546;42.674;23.284;2023-08-21T06:37:15;95163.00;;;31.27;33.37
30819;BME280;17546;42.674;23.284;2023-08-21T06:39:41;95131.97;;;31.09;33.42
30819;BME280;17546;42.674;23.284;2023-08-21T06:42:06;95133.75;;;30.91;33.73
30819;BME280;17546;42.674;23.284;2023-08-21T06:44:31;95129.16;;;30.86;33.24
30819;BME280;17546;42.674;23.284;2023-08-21T06:46:57;95135.84;;;31.02;33.33
30819;BME280;17546;42.674;23.284;2023-08-21T06:49:22;95168.44;;;31.35;33.21
30819;BME280;17546;42.674;23.284;2023-08-21T06:51:48;95138.72;;;31.28;32.80
30819;BME280;17546;42.674;23.284;2023-08-21T06:54:14;95166.84;;;31.57;33.16
30819;BME280;17546;42.674;23.284;2023-08-21T06:56:39;95163.94;;;31.69;32.84
30819;BME280;17546;42.674;23.284;2023-08-21T06:59:05;95169.09;;;31.84;32.93
30819;BME280;17546;42.674;23.284;2023-08-21T07:01:31;95163.72;;;31.90;33.26
30819;BME280;17546;42.674;23.284;2023-08-21T07:03:57;95131.44;;;31.50;33.04
30819;BME280;17546;42.674;23.284;2023-08-21T07:06:22;95166.75;;;31.81;33.04
30819;BME280;17546;42.674;23.284;2023-08-21T07:08:48;95168.16;;;31.94;33.15
30819;BME280;17546;42.674;23.284;2023-08-21T07:11:13;95137.38;;;31.55;33.26
30819;BME280;17546;42.674;23.284;2023-08-21T07:13:39;95149.34;;;31.77;32.99
30819;BME280;17546;42.674;23.284;2023-08-21T07:16:05;95157.53;;;31.82;33.01
30819;BME280;17546;42.674;23.284;2023-08-21T07:18:35;95135.56;;;31.73;33.10
30819;BME280;17546;42.674;23.284;2023-08-21T07:21:01;95161.94;;;31.97;33.06
30819;BME280;17546;42.674;23.284;2023-08-21T07:23:28;95163.22;;;32.08;32.69
30819;BME280;17546;42.674;23.284;2023-08-21T07:25:53;95144.06;;;32.38;32.35
30819;BME280;17546;42.674;23.284;2023-08-21T07:28:19;95132.06;;;32.28;31.90
30819;BME280;17546;42.674;23.284;2023-08-21T07:30:44;95158.53;;;32.82;31.73
30819;BME280;17546;42.674;23.284;2023-08-21T07:33:10;95144.38;;;33.00;31.83
30819;BME280;17546;42.674;23.284;2023-08-21T07:35:35;95152.28;;;33.29;30.82
30819;BME280;17546;42.674;23.284;2023-08-21T07:38:01;95160.59;;;33.52;31.28
30819;BME280;17546;42.674;23.284;2023-08-21T07:40:27;95163.00;;;33.72;30.06
30819;BME280;17546;42.674;23.284;2023-08-21T07:42:52;95159.97;;;34.00;29.82
30819;BME280;17546;42.674;23.284;2023-08-21T07:45:17;95154.28;;;34.31;29.29
30819;BME280;17546;42.674;23.284;2023-08-21T07:47:43;95164.28;;;34.78;29.14
30819;BME280;17546;42.674;23.284;2023-08-21T07:50:08;95160.31;;;35.03;27.74
30819;BME280;17546;42.674;23.284;2023-08-21T07:52:35;95153.53;;;35.12;28.37
30819;BME280;17546;42.674;23.284;2023-08-21T07:55:00;95148.53;;;35.49;27.75
30819;BME280;17546;42.674;23.284;2023-08-21T07:57:29;95127.81;;;35.52;27.66
30819;BME280;17546;42.674;23.284;2023-08-21T07:59:55;95156.00;;;36.10;27.27
30819;BME280;17546;42.674;23.284;2023-08-21T08:02:20;95124.78;;;36.22;27.17
30819;BME280;17546;42.674;23.284;2023-08-21T08:04:46;95152.84;;;36.79;26.35
30819;BME280;17546;42.674;23.284;2023-08-21T08:07:12;95152.06;;;36.99;26.56
30819;BME280;17546;42.674;23.284;2023-08-21T08:09:37;95150.97;;;37.08;25.44
30819;BME280;17546;42.674;23.284;2023-08-21T08:12:03;95131.31;;;36.83;26.20
30819;BME280;17546;42.674;23.284;2023-08-21T08:14:29;95111.47;;;36.53;25.33
30819;BME280;17546;42.674;23.284;2023-08-21T08:16:54;95144.09;;;36.57;25.36
30819;BME280;17546;42.674;23.284;2023-08-21T08:19:20;95140.63;;;36.81;25.28
30819;BME280;17546;42.674;23.284;2023-08-21T08:21:45;95137.00;;;36.80;25.65
30819;BME280;17546;42.674;23.284;2023-08-21T08:24:11;95133.72;;;37.10;24.92
30819;BME280;17546;42.674;23.284;2023-08-21T08:26:37;95145.03;;;37.04;25.47
30819;BME280;17546;42.674;23.284;2023-08-21T08:29:03;95135.16;;;37.53;25.00
30819;BME280;17546;42.674;23.284;2023-08-21T08:31:30;95141.38;;;37.68;25.06
30819;BME280;17546;42.674;23.284;2023-08-21T08:33:55;95106.28;;;37.31;25.24
30819;BME280;17546;42.674;23.284;2023-08-21T08:36:21;95134.28;;;37.27;24.69
30819;BME280;17546;42.674;23.284;2023-08-21T08:38:47;95131.56;;;37.33;25.22
30819;BME280;17546;42.674;23.284;2023-08-21T08:41:33;95121.38;;;37.74;24.30
30819;BME280;17546;42.674;23.284;2023-08-21T08:44:03;95129.50;;;37.79;23.91
30819;BME280;17546;42.674;23.284;2023-08-21T08:46:29;95133.22;;;38.30;23.80
30819;BME280;17546;42.674;23.284;2023-08-21T08:48:56;95127.53;;;38.34;23.73
30819;BME280;17546;42.674;23.284;2023-08-21T08:51:24;95091.22;;;38.29;23.73
30819;BME280;17546;42.674;23.284;2023-08-21T08:53:50;95121.53;;;38.26;23.13
30819;BME280;17546;42.674;23.284;2023-08-21T08:56:16;95118.00;;;38.30;23.01
30819;BME280;17546;42.674;23.284;2023-08-21T08:58:42;95118.44;;;38.20;23.27
30819;BME280;17546;42.674;23.284;2023-08-21T09:01:08;95125.25;;;38.81;22.32
30819;BME280;17546;42.674;23.284;2023-08-21T09:03:36;95115.09;;;38.54;22.29
30819;BME280;17546;42.674;23.284;2023-08-21T09:06:01;95095.25;;;38.18;22.98
30819;BME280;17546;42.674;23.284;2023-08-21T09:08:28;95107.72;;;38.00;23.63
30819;BME280;17546;42.674;23.284;2023-08-21T09:10:53;95111.28;;;39.28;22.33
30819;BME280;17546;42.674;23.284;2023-08-21T09:13:19;95108.69;;;39.40;21.57
30819;BME280;17546;42.674;23.284;2023-08-21T09:15:47;95095.25;;;38.68;22.07
30819;BME280;17546;42.674;23.284;2023-08-21T09:18:13;95095.78;;;38.89;21.83
30819;BME280;17546;42.674;23.284;2023-08-21T09:20:40;95117.28;;;39.36;21.78
30819;BME280;17546;42.674;23.284;2023-08-21T09:23:06;95078.25;;;39.69;21.69
30819;BME280;17546;42.674;23.284;2023-08-21T09:25:38;95107.25;;;40.01;21.71
30819;BME280;17546;42.674;23.284;2023-08-21T09:28:05;95082.69;;;40.04;21.07
30819;BME280;17546;42.674;23.284;2023-08-21T09:30:52;95096.03;;;40.54;21.78
30819;BME280;17546;42.674;23.284;2023-08-21T09:33:22;95097.97;;;40.41;20.82
30819;BME280;17546;42.674;23.284;2023-08-21T09:35:49;95091.47;;;40.79;20.73
30819;BME280;17546;42.674;23.284;2023-08-21T09:38:16;95088.47;;;40.73;20.86
30819;BME280;17546;42.674;23.284;2023-08-21T09:40:42;95093.25;;;40.26;20.55
30819;BME280;17546;42.674;23.284;2023-08-21T09:43:09;95071.63;;;40.29;20.27
30819;BME280;17546;42.674;23.284;2023-08-21T09:45:38;95089.19;;;40.37;20.62
30819;BME280;17546;42.674;23.284;2023-08-21T09:48:04;95089.41;;;40.49;20.77
30819;BME280;17546;42.674;23.284;2023-08-21T09:50:30;95081.66;;;40.99;21.07
30819;BME280;17546;42.674;23.284;2023-08-21T09:52:57;95080.56;;;41.18;20.12
30819;BME280;17546;42.674;23.284;2023-08-21T09:55:23;95085.28;;;40.61;19.54
30819;BME280;17546;42.674;23.284;2023-08-21T09:57:51;95070.00;;;40.97;19.66
30819;BME280;17546;42.674;23.284;2023-08-21T10:00:32;95059.06;;;40.93;19.49
30819;BME280;17546;42.674;23.284;2023-08-21T10:03:02;95071.91;;;41.22;19.59
30819;BME280;17546;42.674;23.284;2023-08-21T10:05:29;95052.06;;;41.08;19.70
30819;BME280;17546;42.674;23.284;2023-08-21T10:07:56;95074.94;;;40.52;19.54
30819;BME280;17546;42.674;23.284;2023-08-21T10:10:24;95041.38;;;40.40;19.60
30819;BME280;17546;42.674;23.284;2023-08-21T10:12:50;95038.13;;;39.90;19.65
30819;BME280;17546;42.674;23.284;2023-08-21T10:15:16;95026.47;;;40.58;19.25
30819;BME280;17546;42.674;23.284;2023-08-21T10:17:43;95057.81;;;39.95;19.61
30819;BME280;17546;42.674;23.284;2023-08-21T10:20:09;95049.59;;;40.18;20.14
30819;BME280;17546;42.674;23.284;2023-08-21T10:22:55;95039.50;;;40.21;20.18
30819;BME280;17546;42.674;23.284;2023-08-21T10:25:25;95029.03;;;40.40;19.75
30819;BME280;17546;42.674;23.284;2023-08-21T10:27:56;95017.84;;;40.26;20.67
30819;BME280;17546;42.674;23.284;2023-08-21T10:30:24;95048.63;;;40.78;19.83
30819;BME280;17546;42.674;23.284;2023-08-21T10:32:52;95030.47;;;40.04;19.27
30819;BME280;17546;42.674;23.284;2023-08-21T10:35:20;95007.56;;;40.19;19.27
30819;BME280;17546;42.674;23.284;2023-08-21T10:40:36;95007.03;;;39.92;20.09
30819;BME280;17546;42.674;23.284;2023-08-21T10:43:02;95033.69;;;40.21;19.10
30819;BME280;17546;42.674;23.284;2023-08-21T10:45:28;95026.69;;;40.32;19.38
30819;BME280;17546;42.674;23.284;2023-08-21T10:47:59;95028.63;;;40.58;19.50
30819;BME280;17546;42.674;23.284;2023-08-21T10:50:25;95021.50;;;40.65;18.90
30819;BME280;17546;42.674;23.284;2023-08-21T10:52:52;95011.34;;;40.64;19.67
30819;BME280;17546;42.674;23.284;2023-08-21T10:55:19;95017.59;;;40.50;20.14
30819;BME280;17546;42.674;23.284;2023-08-21T10:57:49;95014.34;;;39.33;19.59
30819;BME280;17546;42.674;23.284;2023-08-21T11:00:18;95015.72;;;39.92;19.18
30819;BME280;17546;42.674;23.284;2023-08-21T11:02:48;95014.13;;;40.58;19.61
30819;BME280;17546;42.674;23.284;2023-08-21T11:05:15;95002.84;;;40.01;19.31
30819;BME280;17546;42.674;23.284;2023-08-21T11:07:44;95006.00;;;40.14;19.38
30819;BME280;17546;42.674;23.284;2023-08-21T11:10:23;94987.66;;;40.03;18.82
30819;BME280;17546;42.674;23.284;2023-08-21T11:12:56;95010.88;;;40.03;19.24
30819;BME280;17546;42.674;23.284;2023-08-21T11:15:22;94995.25;;;40.20;18.85
30819;BME280;17546;42.674;23.284;2023-08-21T11:17:59;94991.16;;;39.97;18.68
30819;BME280;17546;42.674;23.284;2023-08-21T11:20:33;94954.50;;;40.12;18.69
30819;BME280;17546;42.674;23.284;2023-08-21T11:23:00;94991.03;;;40.64;19.05
30819;BME280;17546;42.674;23.284;2023-08-21T11:25:28;94996.75;;;40.60;17.77
30819;BME280;17546;42.674;23.284;2023-08-21T11:27:55;94993.50;;;40.80;18.72
30819;BME280;17546;42.674;23.284;2023-08-21T11:30:22;94964.69;;;40.52;17.72
30819;BME280;17546;42.674;23.284;2023-08-21T11:32:49;94957.16;;;40.36;18.00
30819;BME280;17546;42.674;23.284;2023-08-21T11:35:15;94958.22;;;40.55;18.64
30819;BME280;17546;42.674;23.284;2023-08-21T11:37:44;94956.13;;;40.60;18.06
30819;BME280;17546;42.674;23.284;2023-08-21T11:40:11;94974.88;;;40.95;18.39
30819;BME280;17546;42.674;23.284;2023-08-21T11:42:38;94969.88;;;41.00;17.81
30819;BME280;17546;42.674;23.284;2023-08-21T11:45:04;94959.69;;;40.18;18.71
30819;BME280;17546;42.674;23.284;2023-08-21T11:47:34;94947.50;;;40.64;18.73
30819;BME280;17546;42.674;23.284;2023-08-21T11:50:07;94976.81;;;40.03;18.17
30819;BME280;17546;42.674;23.284;2023-08-21T11:52:34;94954.59;;;40.57;18.08
30819;BME280;17546;42.674;23.284;2023-08-21T11:55:07;94975.31;;;40.77;17.76
30819;BME280;17546;42.674;23.284;2023-08-21T11:57:33;94970.75;;;40.68;17.99
30819;BME280;17546;42.674;23.284;2023-08-21T11:59:58;94968.13;;;40.82;17.56
30819;BME280;17546;42.674;23.284;2023-08-21T12:02:26;94906.41;;;40.39;17.43
30819;BME280;17546;42.674;23.284;2023-08-21T12:05:06;94972.47;;;39.70;17.60
30819;BME280;17546;42.674;23.284;2023-08-21T12:07:32;94975.84;;;40.27;17.28
30819;BME280;17546;42.674;23.284;2023-08-21T12:09:57;94967.69;;;40.58;17.39
30819;BME280;17546;42.674;23.284;2023-08-21T12:12:23;94969.31;;;40.67;17.29
30819;BME280;17546;42.674;23.284;2023-08-21T12:14:49;94935.94;;;40.68;17.38
30819;BME280;17546;42.674;23.284;2023-08-21T12:17:14;94948.78;;;40.16;17.35
30819;BME280;17546;42.674;23.284;2023-08-21T12:19:40;94950.06;;;40.86;16.97
30819;BME280;17546;42.674;23.284;2023-08-21T12:22:07;94932.56;;;40.03;17.81
30819;BME280;17546;42.674;23.284;2023-08-21T12:24:32;94948.06;;;40.56;17.22
30819;BME280;17546;42.674;23.284;2023-08-21T12:26:57;94932.25;;;40.25;17.76
30819;BME280;17546;42.674;23.284;2023-08-21T12:29:23;94952.16;;;40.81;16.93
30819;BME280;17546;42.674;23.284;2023-08-21T12:31:48;94947.16;;;40.86;17.15
30819;BME280;17546;42.674;23.284;2023-08-21T12:34:14;94945.50;;;40.75;17.32
30819;BME280;17546;42.674;23.284;2023-08-21T12:36:39;94931.97;;;40.11;17.85
30819;BME280;17546;42.674;23.284;2023-08-21T12:39:06;94945.53;;;40.77;17.48
30819;BME280;17546;42.674;23.284;2023-08-21T12:41:32;94942.03;;;40.84;18.10
30819;BME280;17546;42.674;23.284;2023-08-21T12:44:02;94921.16;;;40.96;17.72
30819;BME280;17546;42.674;23.284;2023-08-21T12:46:34;94931.19;;;40.44;17.39
30819;BME280;17546;42.674;23.284;2023-08-21T12:49:00;94912.91;;;40.36;17.21